createdAt,value
2022-08-30T00:01:57.745Z,19.45
2022-08-30T00:07:24.229Z,19.40
2022-08-30T00:12:17.085Z,19.31
2022-08-30T00:17:17.016Z,19.19
2022-08-30T00:22:16.992Z,19.07
2022-08-30T00:27:16.896Z,18.95
2022-08-30T00:32:16.894Z,18.83
2022-08-30T00:37:16.759Z,18.71
2022-08-30T00:42:16.684Z,18.61
2022-08-30T00:47:16.678Z,18.53
2022-08-30T00:52:16.571Z,18.45
2022-08-30T00:57:16.503Z,18.37
2022-08-30T01:02:16.497Z,18.29
2022-08-30T01:07:16.347Z,18.22
2022-08-30T01:12:16.289Z,18.14
2022-08-30T01:17:16.197Z,18.06
2022-08-30T01:22:16.150Z,17.97
2022-08-30T01:27:16.062Z,17.85
2022-08-30T01:32:18.714Z,17.75
2022-08-30T01:37:15.996Z,17.67
2022-08-30T01:42:15.878Z,17.61
2022-08-30T01:47:15.810Z,17.56
2022-08-30T01:52:15.768Z,17.51
2022-08-30T01:57:15.670Z,17.46
2022-08-30T02:02:15.612Z,17.41
2022-08-30T02:07:17.063Z,17.37
2022-08-30T02:12:15.510Z,17.34
2022-08-30T02:17:15.406Z,17.32
2022-08-30T02:22:15.346Z,17.31
2022-08-30T02:27:15.248Z,17.30
2022-08-30T02:32:15.205Z,17.28
2022-08-30T02:37:15.220Z,17.24
2022-08-30T02:42:15.072Z,17.18
2022-08-30T02:47:15.012Z,17.11
2022-08-30T02:52:14.942Z,17.04
2022-08-30T02:57:19.974Z,16.97
2022-08-30T03:02:15.803Z,16.89
2022-08-30T03:07:14.746Z,16.81
2022-08-30T03:12:14.667Z,16.72
2022-08-30T03:17:15.753Z,16.63
2022-08-30T03:22:14.542Z,16.54
2022-08-30T03:27:14.481Z,16.46
2022-08-30T03:32:14.470Z,16.40
2022-08-30T03:37:14.365Z,16.35
2022-08-30T03:42:14.399Z,16.31
2022-08-30T03:47:14.261Z,16.26
2022-08-30T03:52:14.184Z,16.22
2022-08-30T03:57:20.142Z,16.18
2022-08-30T04:02:15.083Z,16.14
2022-08-30T04:07:13.956Z,16.10
2022-08-30T04:12:13.909Z,16.07
2022-08-30T04:17:24.334Z,16.04
2022-08-30T04:22:16.762Z,15.98
2022-08-30T04:27:16.644Z,15.93
2022-08-30T04:32:16.605Z,15.91
2022-08-30T04:37:16.505Z,15.93
2022-08-30T04:42:16.445Z,15.98
2022-08-30T04:47:16.374Z,16.04
2022-08-30T04:52:16.476Z,16.12
2022-08-30T04:57:16.377Z,16.21
2022-08-30T05:02:16.292Z,16.29
2022-08-30T05:07:16.149Z,16.37
2022-08-30T05:12:16.305Z,16.44
2022-08-30T05:17:16.058Z,16.49
2022-08-30T05:22:15.948Z,16.54
2022-08-30T05:27:15.837Z,16.58
2022-08-30T05:32:15.790Z,16.64
2022-08-30T05:37:15.739Z,16.72
2022-08-30T05:42:16.955Z,16.84
2022-08-30T05:47:15.580Z,17.01
2022-08-30T05:52:15.544Z,17.22
2022-08-30T05:57:15.453Z,17.46
2022-08-30T06:02:15.483Z,17.69
2022-08-30T06:07:16.482Z,17.90
2022-08-30T06:12:15.239Z,18.08
2022-08-30T06:17:15.233Z,18.23
2022-08-30T06:22:15.093Z,18.32
2022-08-30T06:27:15.066Z,18.41
2022-08-30T06:32:15.106Z,18.51
2022-08-30T06:37:29.762Z,18.66
2022-08-30T06:42:15.947Z,19.18
2022-08-30T06:47:14.792Z,20.27
2022-08-30T06:52:14.764Z,21.59
2022-08-30T06:57:14.643Z,22.88
2022-08-30T07:02:14.728Z,24.18
2022-08-30T07:07:14.563Z,25.47
2022-08-30T07:12:14.486Z,26.60
2022-08-30T07:17:14.425Z,27.40
2022-08-30T07:22:14.328Z,27.70
2022-08-30T07:27:14.265Z,27.85
2022-08-30T07:32:14.202Z,28.01
2022-08-30T07:37:14.531Z,28.29
2022-08-30T07:42:14.084Z,28.63
2022-08-30T07:47:13.986Z,28.64
2022-08-30T07:52:13.983Z,28.37
2022-08-30T07:57:16.030Z,28.14
2022-08-30T08:02:13.934Z,28.09
2022-08-30T08:07:13.813Z,28.47
2022-08-30T08:12:13.661Z,29.27
2022-08-30T08:17:13.613Z,30.26
2022-08-30T08:22:21.682Z,31.16
2022-08-30T08:27:14.536Z,31.77
2022-08-30T08:32:13.431Z,32.34
2022-08-30T08:37:13.332Z,32.99
2022-08-30T08:42:13.291Z,33.65
2022-08-30T08:47:13.709Z,34.31
2022-08-30T08:52:13.250Z,34.97
2022-08-30T08:57:15.992Z,35.67
2022-08-30T09:02:13.030Z,36.35
2022-08-30T09:07:12.965Z,36.96
2022-08-30T09:12:12.886Z,37.67
2022-08-30T09:17:12.828Z,38.59
2022-08-30T09:22:12.790Z,39.64
2022-08-30T09:27:12.677Z,40.68
2022-08-30T09:32:25.297Z,41.66
2022-08-30T09:37:13.582Z,42.60
2022-08-30T09:42:12.507Z,43.47
2022-08-30T09:47:12.452Z,44.24
2022-08-30T09:52:12.424Z,44.84
2022-08-30T09:57:12.965Z,45.55
2022-08-30T10:02:12.334Z,46.35
2022-08-30T10:07:12.993Z,47.12
2022-08-30T10:12:12.174Z,47.79
2022-08-30T10:22:13.040Z,48.62
2022-08-30T10:27:11.982Z,48.66
2022-08-30T10:32:11.930Z,48.62
2022-08-30T10:37:11.856Z,48.65
2022-08-30T10:42:11.829Z,48.80
2022-08-30T10:47:11.721Z,48.99
2022-08-30T10:52:11.682Z,48.99
2022-08-30T10:57:11.597Z,48.65
2022-08-30T11:02:11.522Z,48.30
2022-08-30T11:07:11.472Z,48.10
2022-08-30T11:12:11.414Z,48.01
2022-08-30T11:17:11.368Z,47.98
2022-08-30T11:22:11.301Z,47.92
2022-08-30T11:27:11.224Z,47.81
2022-08-30T11:32:12.006Z,47.67
2022-08-30T11:37:11.210Z,47.49
2022-08-30T11:42:11.052Z,47.34
2022-08-30T11:47:10.984Z,47.27
2022-08-30T11:52:28.292Z,47.14
2022-08-30T11:57:11.895Z,46.91
2022-08-30T12:02:10.848Z,46.66
2022-08-30T12:07:10.724Z,46.39
2022-08-30T12:12:10.717Z,46.06
2022-08-30T12:17:10.604Z,45.55
2022-08-30T12:22:10.661Z,44.94
2022-08-30T12:27:11.272Z,44.37
2022-08-30T12:32:10.501Z,43.83
2022-08-30T12:37:10.388Z,42.88
2022-08-30T12:42:10.320Z,41.87
2022-08-30T12:47:10.283Z,41.52
2022-08-30T12:52:10.203Z,41.64
2022-08-30T12:57:32.074Z,41.81
2022-08-30T13:02:20.326Z,41.92
2022-08-30T13:07:11.019Z,41.67
2022-08-30T13:12:09.917Z,40.91
2022-08-30T13:17:09.874Z,39.74
2022-08-30T13:22:09.965Z,38.45
2022-08-30T13:27:09.759Z,37.41
2022-08-30T13:32:09.697Z,36.78
2022-08-30T13:37:47.256Z,36.33
2022-08-30T13:52:20.380Z,34.41
2022-08-30T13:57:10.366Z,33.75
2022-08-30T14:02:11.438Z,33.19
2022-08-30T14:07:13.891Z,32.87
2022-08-30T14:12:10.157Z,32.72
2022-08-30T14:17:09.156Z,32.55
2022-08-30T14:22:09.058Z,32.48
2022-08-30T14:27:08.955Z,32.66
2022-08-30T14:32:08.929Z,33.00
2022-08-30T14:37:08.839Z,33.41
2022-08-30T14:42:09.549Z,33.81
2022-08-30T14:47:08.732Z,34.12
2022-08-30T14:52:08.640Z,34.34
2022-08-30T14:57:08.597Z,34.47
2022-08-30T15:02:08.526Z,34.50
2022-08-30T15:07:13.115Z,34.34
2022-08-30T15:12:09.426Z,33.92
2022-08-30T15:17:08.401Z,33.55
2022-08-30T15:22:08.305Z,33.38
2022-08-30T15:27:08.198Z,33.29
2022-08-30T15:32:08.160Z,33.18
2022-08-30T15:37:08.097Z,33.04
2022-08-30T15:42:08.030Z,32.87
2022-08-30T15:47:08.328Z,32.69
2022-08-30T15:52:10.103Z,32.51
2022-08-30T15:57:07.833Z,32.32
2022-08-30T16:02:07.820Z,32.12
2022-08-30T16:07:07.715Z,31.90
2022-08-30T16:12:07.676Z,31.71
2022-08-30T16:17:07.604Z,31.55
2022-08-30T16:22:07.605Z,31.41
2022-08-30T16:27:08.795Z,31.24
2022-08-30T16:32:07.399Z,31.06
2022-08-30T16:37:07.312Z,30.80
2022-08-30T16:42:07.273Z,30.44
2022-08-30T16:47:11.427Z,30.04
2022-08-30T16:52:08.150Z,29.67
2022-08-30T16:57:07.051Z,29.35
2022-08-30T17:02:07.065Z,29.11
2022-08-30T17:07:06.943Z,28.91
2022-08-30T17:12:07.891Z,28.72
2022-08-30T17:17:06.788Z,28.53
2022-08-30T17:22:08.695Z,28.34
2022-08-30T17:27:06.655Z,28.14
2022-08-30T17:32:06.611Z,27.93
2022-08-30T17:37:07.054Z,27.71
2022-08-30T17:42:06.457Z,27.47
2022-08-30T17:47:06.388Z,27.19
2022-08-30T17:52:06.347Z,26.89
2022-08-30T17:57:10.135Z,26.59
2022-08-30T18:02:06.232Z,26.30
2022-08-30T18:07:06.466Z,26.03
2022-08-30T18:12:06.050Z,25.77
2022-08-30T18:17:06.075Z,25.51
2022-08-30T18:22:05.989Z,25.26
2022-08-30T18:27:05.867Z,25.04
2022-08-30T18:32:05.788Z,24.87
2022-08-30T18:37:05.735Z,24.75
2022-08-30T18:42:06.775Z,24.66
2022-08-30T18:47:05.875Z,24.59
2022-08-30T18:52:05.544Z,24.54
2022-08-30T18:57:05.523Z,24.50
2022-08-30T19:02:05.538Z,24.46
2022-08-30T19:07:05.498Z,24.43
2022-08-30T19:12:09.434Z,24.40
2022-08-30T19:17:07.207Z,24.38
2022-08-30T19:22:05.127Z,24.36
2022-08-30T19:27:05.283Z,24.33
2022-08-30T19:32:05.027Z,24.30
2022-08-30T19:37:04.966Z,24.26
2022-08-30T19:42:04.885Z,24.21
2022-08-30T19:47:04.829Z,24.16
2022-08-30T19:52:04.764Z,24.11
2022-08-30T19:57:04.693Z,24.06
2022-08-30T20:02:04.722Z,24.00
2022-08-30T20:07:04.587Z,23.95
2022-08-30T20:12:04.495Z,23.89
2022-08-30T20:17:04.465Z,23.84
2022-08-30T20:22:08.099Z,23.78
2022-08-30T20:27:04.309Z,23.72
2022-08-30T20:32:04.351Z,23.67
2022-08-30T20:37:04.194Z,23.62
2022-08-30T20:42:04.102Z,23.57
2022-08-30T20:47:04.479Z,23.52
2022-08-30T20:52:04.837Z,23.48
2022-08-30T20:57:03.949Z,23.44
2022-08-30T21:02:03.858Z,23.41
2022-08-30T21:07:03.807Z,23.37
2022-08-30T21:12:03.761Z,23.34
2022-08-30T21:17:03.719Z,23.30
2022-08-30T21:22:03.556Z,23.27
2022-08-30T21:27:03.594Z,23.23
2022-08-30T21:32:03.450Z,23.20
2022-08-30T21:37:03.416Z,23.17
2022-08-30T21:42:03.365Z,23.14
2022-08-30T21:47:03.222Z,23.11
2022-08-30T21:52:03.201Z,23.08
2022-08-30T21:57:03.095Z,23.05
2022-08-30T22:02:03.073Z,23.02
2022-08-30T22:07:02.976Z,23.00
2022-08-30T22:12:02.987Z,22.99
2022-08-30T22:17:02.950Z,22.97
2022-08-30T22:22:02.732Z,22.96
2022-08-30T22:27:02.798Z,22.95
2022-08-30T22:32:02.734Z,22.94
2022-08-30T22:37:02.605Z,22.92
2022-08-30T22:42:02.677Z,22.91
2022-08-30T22:47:02.466Z,22.90
2022-08-30T22:52:02.358Z,22.87
2022-08-30T22:57:02.917Z,22.85
2022-08-30T23:02:02.477Z,22.82
2022-08-30T23:07:02.180Z,22.80
2022-08-30T23:12:02.394Z,22.78
2022-08-30T23:17:02.039Z,22.75
2022-08-30T23:22:02.004Z,22.73
2022-08-30T23:27:03.220Z,22.72
2022-08-30T23:32:01.885Z,22.70
2022-08-30T23:37:01.897Z,22.68
2022-08-30T23:42:01.789Z,22.66
2022-08-30T23:47:01.810Z,22.64
2022-08-30T23:52:01.645Z,22.62
2022-08-30T23:57:01.663Z,22.60
